sensor_id;sensor_type;location;lat;lon;timestamp;P1;P2;P0
79689;PMS5003;69156;55.932;-3.238;2023-10-19T00:01:05;4;4;
79689;PMS5003;69156;55.932;-3.238;2023-10-19T00:03:32;4;4;
79689;PMS5003;69156;55.932;-3.238;2023-10-19T00:05:56;4;4;
79689;PMS5003;69156;55.932;-3.238;2023-10-19T00:08:22;4;4;
79689;PMS5003;69156;55.932;-3.238;2023-10-19T00:10:48;6;6;
79689;PMS5003;69156;55.932;-3.238;2023-10-19T00:13:14;8;7;
79689;PMS5003;69156;55.932;-3.238;2023-10-19T00:15:42;7;7;
79689;PMS5003;69156;55.932;-3.238;2023-10-19T00:18:05;9;9;
79689;PMS5003;69156;55.932;-3.238;2023-10-19T00:20:31;8;8;
79689;PMS5003;69156;55.932;-3.238;2023-10-19T00:22:56;6;6;
79689;PMS5003;69156;55.932;-3.238;2023-10-19T00:25:29;5;4;
79689;PMS5003;69156;55.932;-3.238;2023-10-19T00:27:49;6;5;
79689;PMS5003;69156;55.932;-3.238;2023-10-19T00:30:15;4;4;
79689;PMS5003;69156;55.932;-3.238;2023-10-19T00:32:40;3;3;
79689;PMS5003;69156;55.932;-3.238;2023-10-19T00:35:05;3;3;
79689;PMS5003;69156;55.932;-3.238;2023-10-19T00:37:30;4;4;
79689;PMS5003;69156;55.932;-3.238;2023-10-19T00:39:58;3;3;
79689;PMS5003;69156;55.932;-3.238;2023-10-19T00:42:24;7;4;
79689;PMS5003;69156;55.932;-3.238;2023-10-19T00:44:49;4;4;
79689;PMS5003;69156;55.932;-3.238;2023-10-19T00:47:15;5;4;
79689;PMS5003;69156;55.932;-3.238;2023-10-19T00:49:39;6;5;
79689;PMS5003;69156;55.932;-3.238;2023-10-19T00:52:04;3;3;
79689;PMS5003;69156;55.932;-3.238;2023-10-19T00:54:31;3;3;
79689;PMS5003;69156;55.932;-3.238;2023-10-19T00:56:55;4;4;
79689;PMS5003;69156;55.932;-3.238;2023-10-19T00:59:21;2;2;
79689;PMS5003;69156;55.932;-3.238;2023-10-19T01:01:46;3;3;
79689;PMS5003;69156;55.932;-3.238;2023-10-19T01:04:12;2;2;
79689;PMS5003;69156;55.932;-3.238;2023-10-19T01:06:40;4;4;
79689;PMS5003;69156;55.932;-3.238;2023-10-19T01:09:05;4;4;
79689;PMS5003;69156;55.932;-3.238;2023-10-19T01:11:30;3;3;
79689;PMS5003;69156;55.932;-3.238;2023-10-19T01:13:59;5;5;
79689;PMS5003;69156;55.932;-3.238;2023-10-19T01:16:24;5;5;
79689;PMS5003;69156;55.932;-3.238;2023-10-19T01:18:50;4;3;
79689;PMS5003;69156;55.932;-3.238;2023-10-19T01:21:15;5;5;
79689;PMS5003;69156;55.932;-3.238;2023-10-19T01:23:41;4;4;
79689;PMS5003;69156;55.932;-3.238;2023-10-19T01:26:08;4;4;
79689;PMS5003;69156;55.932;-3.238;2023-10-19T01:28:33;3;3;
79689;PMS5003;69156;55.932;-3.238;2023-10-19T01:31:00;6;6;
79689;PMS5003;69156;55.932;-3.238;2023-10-19T01:33:25;4;4;
79689;PMS5003;69156;55.932;-3.238;2023-10-19T01:35:49;4;4;
79689;PMS5003;69156;55.932;-3.238;2023-10-19T01:38:17;4;4;
79689;PMS5003;69156;55.932;-3.238;2023-10-19T01:40:42;3;3;
79689;PMS5003;69156;55.932;-3.238;2023-10-19T01:43:08;3;3;
79689;PMS5003;69156;55.932;-3.238;2023-10-19T01:45:33;3;3;
79689;PMS5003;69156;55.932;-3.238;2023-10-19T01:47:58;4;4;
79689;PMS5003;69156;55.932;-3.238;2023-10-19T01:50:25;3;3;
79689;PMS5003;69156;55.932;-3.238;2023-10-19T01:52:50;2;2;
79689;PMS5003;69156;55.932;-3.238;2023-10-19T01:55:16;3;3;
79689;PMS5003;69156;55.932;-3.238;2023-10-19T01:57:47;3;3;
79689;PMS5003;69156;55.932;-3.238;2023-10-19T02:00:13;4;4;
79689;PMS5003;69156;55.932;-3.238;2023-10-19T02:02:38;4;4;
79689;PMS5003;69156;55.932;-3.238;2023-10-19T02:05:04;4;4;
79689;PMS5003;69156;55.932;-3.238;2023-10-19T02:07:34;4;4;
79689;PMS5003;69156;55.932;-3.238;2023-10-19T02:09:55;5;5;
79689;PMS5003;69156;55.932;-3.238;2023-10-19T02:12:21;2;2;
79689;PMS5003;69156;55.932;-3.238;2023-10-19T02:14:55;5;5;
79689;PMS5003;69156;55.932;-3.238;2023-10-19T02:17:20;5;4;
79689;PMS5003;69156;55.932;-3.238;2023-10-19T02:19:47;4;4;
79689;PMS5003;69156;55.932;-3.238;2023-10-19T02:22:12;5;5;
79689;PMS5003;69156;55.932;-3.238;2023-10-19T02:24:38;5;5;
79689;PMS5003;69156;55.932;-3.238;2023-10-19T02:27:04;6;5;
79689;PMS5003;69156;55.932;-3.238;2023-10-19T02:29:30;7;7;
79689;PMS5003;69156;55.932;-3.238;2023-10-19T02:31:55;5;5;
79689;PMS5003;69156;55.932;-3.238;2023-10-19T02:34:21;6;6;
79689;PMS5003;69156;55.932;-3.238;2023-10-19T02:36:47;9;9;
79689;PMS5003;69156;55.932;-3.238;2023-10-19T02:39:13;7;7;
79689;PMS5003;69156;55.932;-3.238;2023-10-19T02:41:38;10;10;
79689;PMS5003;69156;55.932;-3.238;2023-10-19T02:44:04;8;8;
79689;PMS5003;69156;55.932;-3.238;2023-10-19T02:46:31;7;6;
79689;PMS5003;69156;55.932;-3.238;2023-10-19T02:48:55;9;9;
79689;PMS5003;69156;55.932;-3.238;2023-10-19T02:51:20;8;8;
79689;PMS5003;69156;55.932;-3.238;2023-10-19T02:53:46;8;8;
79689;PMS5003;69156;55.932;-3.238;2023-10-19T02:56:13;8;8;
79689;PMS5003;69156;55.932;-3.238;2023-10-19T02:58:38;9;9;
79689;PMS5003;69156;55.932;-3.238;2023-10-19T03:01:11;7;7;
79689;PMS5003;69156;55.932;-3.238;2023-10-19T03:03:29;7;7;
79689;PMS5003;69156;55.932;-3.238;2023-10-19T03:05:54;9;8;
79689;PMS5003;69156;55.932;-3.238;2023-10-19T03:08:20;9;8;
79689;PMS5003;69156;55.932;-3.238;2023-10-19T03:10:45;7;6;
79689;PMS5003;69156;55.932;-3.238;2023-10-19T03:13:12;8;8;
79689;PMS5003;69156;55.932;-3.238;2023-10-19T03:15:38;10;9;
79689;PMS5003;69156;55.932;-3.238;2023-10-19T03:18:04;7;6;
79689;PMS5003;69156;55.932;-3.238;2023-10-19T03:20:31;8;7;
79689;PMS5003;69156;55.932;-3.238;2023-10-19T03:22:59;7;7;
79689;PMS5003;69156;55.932;-3.238;2023-10-19T03:25:21;7;7;
79689;PMS5003;69156;55.932;-3.238;2023-10-19T03:27:47;12;12;
79689;PMS5003;69156;55.932;-3.238;2023-10-19T03:30:13;10;10;
79689;PMS5003;69156;55.932;-3.238;2023-10-19T03:32:39;10;10;
79689;PMS5003;69156;55.932;-3.238;2023-10-19T03:35:05;11;11;
79689;PMS5003;69156;55.932;-3.238;2023-10-19T03:37:30;9;9;
79689;PMS5003;69156;55.932;-3.238;2023-10-19T03:39:56;15;15;
79689;PMS5003;69156;55.932;-3.238;2023-10-19T03:42:21;14;14;
79689;PMS5003;69156;55.932;-3.238;2023-10-19T03:44:47;15;14;
79689;PMS5003;69156;55.932;-3.238;2023-10-19T03:47:13;15;15;
79689;PMS5003;69156;55.932;-3.238;2023-10-19T03:49:40;17;17;
79689;PMS5003;69156;55.932;-3.238;2023-10-19T03:52:06;21;19;
79689;PMS5003;69156;55.932;-3.238;2023-10-19T03:54:31;23;23;
79689;PMS5003;69156;55.932;-3.238;2023-10-19T03:56:57;17;17;
79689;PMS5003;69156;55.932;-3.238;2023-10-19T03:59:23;16;16;
79689;PMS5003;69156;55.932;-3.238;2023-10-19T04:01:48;14;14;
79689;PMS5003;69156;55.932;-3.238;2023-10-19T04:04:13;13;13;
79689;PMS5003;69156;55.932;-3.238;2023-10-19T04:06:40;14;14;
79689;PMS5003;69156;55.932;-3.238;2023-10-19T04:09:05;21;21;
79689;PMS5003;69156;55.932;-3.238;2023-10-19T04:11:30;18;18;
79689;PMS5003;69156;55.932;-3.238;2023-10-19T04:13:57;16;16;
79689;PMS5003;69156;55.932;-3.238;2023-10-19T04:16:23;16;16;
79689;PMS5003;69156;55.932;-3.238;2023-10-19T04:18:47;18;18;
79689;PMS5003;69156;55.932;-3.238;2023-10-19T04:21:12;17;17;
79689;PMS5003;69156;55.932;-3.238;2023-10-19T04:23:38;16;16;
79689;PMS5003;69156;55.932;-3.238;2023-10-19T04:26:05;17;16;
79689;PMS5003;69156;55.932;-3.238;2023-10-19T04:28:30;13;13;
79689;PMS5003;69156;55.932;-3.238;2023-10-19T04:30:55;17;17;
79689;PMS5003;69156;55.932;-3.238;2023-10-19T04:33:21;15;15;
79689;PMS5003;69156;55.932;-3.238;2023-10-19T04:35:47;10;10;
79689;PMS5003;69156;55.932;-3.238;2023-10-19T04:38:14;9;9;
79689;PMS5003;69156;55.932;-3.238;2023-10-19T04:40:38;13;13;
79689;PMS5003;69156;55.932;-3.238;2023-10-19T04:43:04;14;13;
79689;PMS5003;69156;55.932;-3.238;2023-10-19T04:45:30;11;11;
79689;PMS5003;69156;55.932;-3.238;2023-10-19T04:47:55;13;13;
79689;PMS5003;69156;55.932;-3.238;2023-10-19T04:50:21;11;9;
79689;PMS5003;69156;55.932;-3.238;2023-10-19T04:52:47;12;12;
79689;PMS5003;69156;55.932;-3.238;2023-10-19T04:55:13;13;12;
79689;PMS5003;69156;55.932;-3.238;2023-10-19T04:57:38;8;8;
79689;PMS5003;69156;55.932;-3.238;2023-10-19T05:00:04;11;9;
79689;PMS5003;69156;55.932;-3.238;2023-10-19T05:02:30;12;11;
79689;PMS5003;69156;55.932;-3.238;2023-10-19T05:04:55;9;9;
79689;PMS5003;69156;55.932;-3.238;2023-10-19T05:07:21;9;9;
79689;PMS5003;69156;55.932;-3.238;2023-10-19T05:09:48;13;13;
79689;PMS5003;69156;55.932;-3.238;2023-10-19T05:12:13;12;10;
79689;PMS5003;69156;55.932;-3.238;2023-10-19T05:14:39;11;11;
79689;PMS5003;69156;55.932;-3.238;2023-10-19T05:17:04;13;12;
79689;PMS5003;69156;55.932;-3.238;2023-10-19T05:19:29;14;13;
79689;PMS5003;69156;55.932;-3.238;2023-10-19T05:21:55;13;12;
79689;PMS5003;69156;55.932;-3.238;2023-10-19T05:24:20;13;12;
79689;PMS5003;69156;55.932;-3.238;2023-10-19T05:26:47;13;13;
79689;PMS5003;69156;55.932;-3.238;2023-10-19T05:29:12;16;16;
79689;PMS5003;69156;55.932;-3.238;2023-10-19T05:31:38;21;20;
79689;PMS5003;69156;55.932;-3.238;2023-10-19T05:34:04;28;27;
79689;PMS5003;69156;55.932;-3.238;2023-10-19T05:36:30;32;32;
79689;PMS5003;69156;55.932;-3.238;2023-10-19T05:38:55;31;31;
79689;PMS5003;69156;55.932;-3.238;2023-10-19T05:41:22;26;26;
79689;PMS5003;69156;55.932;-3.238;2023-10-19T05:43:47;19;18;
79689;PMS5003;69156;55.932;-3.238;2023-10-19T05:46:13;25;24;
79689;PMS5003;69156;55.932;-3.238;2023-10-19T05:48:46;18;17;
79689;PMS5003;69156;55.932;-3.238;2023-10-19T05:51:08;19;19;
79689;PMS5003;69156;55.932;-3.238;2023-10-19T05:53:33;19;19;
79689;PMS5003;69156;55.932;-3.238;2023-10-19T05:55:59;17;17;
79689;PMS5003;69156;55.932;-3.238;2023-10-19T05:58:25;18;16;
79689;PMS5003;69156;55.932;-3.238;2023-10-19T06:00:50;15;15;
79689;PMS5003;69156;55.932;-3.238;2023-10-19T06:03:15;20;18;
79689;PMS5003;69156;55.932;-3.238;2023-10-19T06:05:42;21;18;
79689;PMS5003;69156;55.932;-3.238;2023-10-19T06:08:06;23;22;
79689;PMS5003;69156;55.932;-3.238;2023-10-19T06:10:33;23;23;
79689;PMS5003;69156;55.932;-3.238;2023-10-19T06:12:58;29;28;
79689;PMS5003;69156;55.932;-3.238;2023-10-19T06:15:30;24;24;
79689;PMS5003;69156;55.932;-3.238;2023-10-19T06:17:54;27;27;
79689;PMS5003;69156;55.932;-3.238;2023-10-19T06:20:22;21;21;
79689;PMS5003;69156;55.932;-3.238;2023-10-19T06:22:47;24;22;
79689;PMS5003;69156;55.932;-3.238;2023-10-19T06:25:11;25;25;
79689;PMS5003;69156;55.932;-3.238;2023-10-19T06:27:39;27;26;
79689;PMS5003;69156;55.932;-3.238;2023-10-19T06:30:05;32;31;
79689;PMS5003;69156;55.932;-3.238;2023-10-19T06:32:31;26;24;
79689;PMS5003;69156;55.932;-3.238;2023-10-19T06:34:56;28;26;
79689;PMS5003;69156;55.932;-3.238;2023-10-19T06:37:22;26;24;
79689;PMS5003;69156;55.932;-3.238;2023-10-19T06:39:47;18;18;
79689;PMS5003;69156;55.932;-3.238;2023-10-19T06:42:12;22;21;
79689;PMS5003;69156;55.932;-3.238;2023-10-19T06:44:40;18;18;
79689;PMS5003;69156;55.932;-3.238;2023-10-19T06:47:04;15;15;
79689;PMS5003;69156;55.932;-3.238;2023-10-19T06:49:30;16;16;
79689;PMS5003;69156;55.932;-3.238;2023-10-19T06:51:56;19;18;
79689;PMS5003;69156;55.932;-3.238;2023-10-19T06:54:21;13;13;
79689;PMS5003;69156;55.932;-3.238;2023-10-19T06:56:46;16;16;
79689;PMS5003;69156;55.932;-3.238;2023-10-19T06:59:13;21;15;
79689;PMS5003;69156;55.932;-3.238;2023-10-19T07:01:39;16;16;
79689;PMS5003;69156;55.932;-3.238;2023-10-19T07:04:05;18;18;
79689;PMS5003;69156;55.932;-3.238;2023-10-19T07:06:31;17;15;
79689;PMS5003;69156;55.932;-3.238;2023-10-19T07:08:56;16;16;
79689;PMS5003;69156;55.932;-3.238;2023-10-19T07:11:21;16;16;
79689;PMS5003;69156;55.932;-3.238;2023-10-19T07:13:47;13;13;
79689;PMS5003;69156;55.932;-3.238;2023-10-19T07:16:13;15;14;
79689;PMS5003;69156;55.932;-3.238;2023-10-19T07:18:40;15;15;
79689;PMS5003;69156;55.932;-3.238;2023-10-19T07:21:05;12;11;
79689;PMS5003;69156;55.932;-3.238;2023-10-19T07:23:31;12;11;
79689;PMS5003;69156;55.932;-3.238;2023-10-19T07:25:56;9;9;
79689;PMS5003;69156;55.932;-3.238;2023-10-19T07:28:22;15;15;
79689;PMS5003;69156;55.932;-3.238;2023-10-19T07:30:48;13;13;
79689;PMS5003;69156;55.932;-3.238;2023-10-19T07:33:13;13;12;
79689;PMS5003;69156;55.932;-3.238;2023-10-19T07:35:39;14;13;
79689;PMS5003;69156;55.932;-3.238;2023-10-19T07:38:04;12;12;
79689;PMS5003;69156;55.932;-3.238;2023-10-19T07:40:29;13;13;
79689;PMS5003;69156;55.932;-3.238;2023-10-19T07:42:56;13;12;
79689;PMS5003;69156;55.932;-3.238;2023-10-19T07:45:21;12;12;
79689;PMS5003;69156;55.932;-3.238;2023-10-19T07:47:47;12;12;
79689;PMS5003;69156;55.932;-3.238;2023-10-19T07:50:12;11;11;
79689;PMS5003;69156;55.932;-3.238;2023-10-19T07:52:49;14;14;
79689;PMS5003;69156;55.932;-3.238;2023-10-19T07:55:12;12;12;
79689;PMS5003;69156;55.932;-3.238;2023-10-19T07:57:38;13;13;
79689;PMS5003;69156;55.932;-3.238;2023-10-19T08:00:06;13;13;
79689;PMS5003;69156;55.932;-3.238;2023-10-19T08:02:30;13;13;
79689;PMS5003;69156;55.932;-3.238;2023-10-19T08:04:55;13;13;
79689;PMS5003;69156;55.932;-3.238;2023-10-19T08:07:21;12;12;
79689;PMS5003;69156;55.932;-3.238;2023-10-19T08:09:46;14;12;
79689;PMS5003;69156;55.932;-3.238;2023-10-19T08:12:12;13;12;
79689;PMS5003;69156;55.932;-3.238;2023-10-19T08:14:38;12;12;
79689;PMS5003;69156;55.932;-3.238;2023-10-19T08:17:03;12;11;
79689;PMS5003;69156;55.932;-3.238;2023-10-19T08:19:29;13;13;
79689;PMS5003;69156;55.932;-3.238;2023-10-19T08:21:55;11;11;
79689;PMS5003;69156;55.932;-3.238;2023-10-19T08:24:21;12;11;
79689;PMS5003;69156;55.932;-3.238;2023-10-19T08:26:46;11;11;
79689;PMS5003;69156;55.932;-3.238;2023-10-19T08:29:11;11;10;
79689;PMS5003;69156;55.932;-3.238;2023-10-19T08:31:37;12;12;
79689;PMS5003;69156;55.932;-3.238;2023-10-19T08:34:03;10;8;
79689;PMS5003;69156;55.932;-3.238;2023-10-19T08:36:29;10;10;
79689;PMS5003;69156;55.932;-3.238;2023-10-19T08:38:54;11;11;
79689;PMS5003;69156;55.932;-3.238;2023-10-19T08:41:20;13;12;
79689;PMS5003;69156;55.932;-3.238;2023-10-19T08:43:45;8;8;
79689;PMS5003;69156;55.932;-3.238;2023-10-19T08:46:10;11;11;
79689;PMS5003;69156;55.932;-3.238;2023-10-19T08:48:36;9;9;
79689;PMS5003;69156;55.932;-3.238;2023-10-19T08:51:03;9;9;
79689;PMS5003;69156;55.932;-3.238;2023-10-19T08:53:27;7;7;
79689;PMS5003;69156;55.932;-3.238;2023-10-19T08:55:53;11;11;
79689;PMS5003;69156;55.932;-3.238;2023-10-19T08:58:19;7;7;
79689;PMS5003;69156;55.932;-3.238;2023-10-19T09:00:45;9;9;
79689;PMS5003;69156;55.932;-3.238;2023-10-19T09:03:11;8;8;
79689;PMS5003;69156;55.932;-3.238;2023-10-19T09:05:38;8;8;
79689;PMS5003;69156;55.932;-3.238;2023-10-19T09:08:02;10;9;
79689;PMS5003;69156;55.932;-3.238;2023-10-19T09:10:27;8;8;
79689;PMS5003;69156;55.932;-3.238;2023-10-19T09:12:59;9;8;
79689;PMS5003;69156;55.932;-3.238;2023-10-19T09:15:21;8;7;
79689;PMS5003;69156;55.932;-3.238;2023-10-19T09:17:43;8;8;
79689;PMS5003;69156;55.932;-3.238;2023-10-19T09:20:09;6;6;
79689;PMS5003;69156;55.932;-3.238;2023-10-19T09:22:35;7;7;
79689;PMS5003;69156;55.932;-3.238;2023-10-19T09:24:59;8;8;
79689;PMS5003;69156;55.932;-3.238;2023-10-19T09:27:25;7;7;
79689;PMS5003;69156;55.932;-3.238;2023-10-19T09:29:50;7;7;
79689;PMS5003;69156;55.932;-3.238;2023-10-19T09:32:16;8;8;
79689;PMS5003;69156;55.932;-3.238;2023-10-19T09:34:42;8;8;
79689;PMS5003;69156;55.932;-3.238;2023-10-19T09:37:07;6;6;
79689;PMS5003;69156;55.932;-3.238;2023-10-19T09:39:33;11;10;
79689;PMS5003;69156;55.932;-3.238;2023-10-19T09:41:59;7;7;
79689;PMS5003;69156;55.932;-3.238;2023-10-19T09:44:24;9;8;
79689;PMS5003;69156;55.932;-3.238;2023-10-19T09:46:50;10;10;
79689;PMS5003;69156;55.932;-3.238;2023-10-19T09:49:15;8;7;
79689;PMS5003;69156;55.932;-3.238;2023-10-19T09:51:40;7;7;
79689;PMS5003;69156;55.932;-3.238;2023-10-19T09:54:07;8;8;
79689;PMS5003;69156;55.932;-3.238;2023-10-19T09:56:32;8;8;
79689;PMS5003;69156;55.932;-3.238;2023-10-19T09:58:57;8;6;
79689;PMS5003;69156;55.932;-3.238;2023-10-19T10:01:21;6;6;
79689;PMS5003;69156;55.932;-3.238;2023-10-19T10:03:48;6;6;
79689;PMS5003;69156;55.932;-3.238;2023-10-19T10:06:14;9;8;
79689;PMS5003;69156;55.932;-3.238;2023-10-19T10:08:39;7;6;
79689;PMS5003;69156;55.932;-3.238;2023-10-19T10:11:13;7;7;
79689;PMS5003;69156;55.932;-3.238;2023-10-19T10:13:36;7;6;
79689;PMS5003;69156;55.932;-3.238;2023-10-19T10:15:57;7;7;
79689;PMS5003;69156;55.932;-3.238;2023-10-19T10:18:23;6;6;
79689;PMS5003;69156;55.932;-3.238;2023-10-19T10:20:47;5;5;
79689;PMS5003;69156;55.932;-3.238;2023-10-19T10:23:16;6;6;
79689;PMS5003;69156;55.932;-3.238;2023-10-19T10:25:37;9;5;
79689;PMS5003;69156;55.932;-3.238;2023-10-19T10:28:03;8;7;
79689;PMS5003;69156;55.932;-3.238;2023-10-19T10:30:29;6;6;
79689;PMS5003;69156;55.932;-3.238;2023-10-19T10:32:54;6;6;
79689;PMS5003;69156;55.932;-3.238;2023-10-19T10:35:54;6;6;
79689;PMS5003;69156;55.932;-3.238;2023-10-19T10:37:52;9;8;
79689;PMS5003;69156;55.932;-3.238;2023-10-19T10:40:11;6;6;
79689;PMS5003;69156;55.932;-3.238;2023-10-19T10:42:36;11;11;
79689;PMS5003;69156;55.932;-3.238;2023-10-19T10:45:03;5;5;
79689;PMS5003;69156;55.932;-3.238;2023-10-19T10:47:28;8;8;
79689;PMS5003;69156;55.932;-3.238;2023-10-19T10:49:54;8;7;
79689;PMS5003;69156;55.932;-3.238;2023-10-19T10:52:26;6;6;
79689;PMS5003;69156;55.932;-3.238;2023-10-19T10:54:44;6;6;
79689;PMS5003;69156;55.932;-3.238;2023-10-19T10:57:10;8;7;
79689;PMS5003;69156;55.932;-3.238;2023-10-19T10:59:36;6;5;
79689;PMS5003;69156;55.932;-3.238;2023-10-19T11:02:08;7;7;
79689;PMS5003;69156;55.932;-3.238;2023-10-19T11:04:27;5;5;
79689;PMS5003;69156;55.932;-3.238;2023-10-19T11:06:53;5;5;
79689;PMS5003;69156;55.932;-3.238;2023-10-19T11:09:18;7;6;
79689;PMS5003;69156;55.932;-3.238;2023-10-19T11:11:44;8;6;
79689;PMS5003;69156;55.932;-3.238;2023-10-19T11:14:09;7;7;
79689;PMS5003;69156;55.932;-3.238;2023-10-19T11:16:34;7;6;
79689;PMS5003;69156;55.932;-3.238;2023-10-19T11:19:00;5;5;
79689;PMS5003;69156;55.932;-3.238;2023-10-19T11:21:25;5;5;
79689;PMS5003;69156;55.932;-3.238;2023-10-19T11:23:50;7;6;
79689;PMS5003;69156;55.932;-3.238;2023-10-19T11:26:17;6;5;
79689;PMS5003;69156;55.932;-3.238;2023-10-19T11:28:42;6;5;
79689;PMS5003;69156;55.932;-3.238;2023-10-19T11:31:11;6;6;
79689;PMS5003;69156;55.932;-3.238;2023-10-19T11:33:32;6;6;
79689;PMS5003;69156;55.932;-3.238;2023-10-19T11:35:57;8;8;
79689;PMS5003;69156;55.932;-3.238;2023-10-19T11:38:23;8;7;
79689;PMS5003;69156;55.932;-3.238;2023-10-19T11:40:48;5;5;
79689;PMS5003;69156;55.932;-3.238;2023-10-19T11:43:14;7;6;
79689;PMS5003;69156;55.932;-3.238;2023-10-19T11:45:40;8;7;
79689;PMS5003;69156;55.932;-3.238;2023-10-19T11:48:06;7;7;
79689;PMS5003;69156;55.932;-3.238;2023-10-19T11:50:31;7;6;
79689;PMS5003;69156;55.932;-3.238;2023-10-19T11:52:57;7;7;
79689;PMS5003;69156;55.932;-3.238;2023-10-19T11:55:23;6;6;
79689;PMS5003;69156;55.932;-3.238;2023-10-19T11:57:48;7;6;
79689;PMS5003;69156;55.932;-3.238;2023-10-19T12:00:13;10;7;
79689;PMS5003;69156;55.932;-3.238;2023-10-19T12:02:38;6;6;
79689;PMS5003;69156;55.932;-3.238;2023-10-19T12:05:04;6;6;
79689;PMS5003;69156;55.932;-3.238;2023-10-19T12:07:29;10;8;
79689;PMS5003;69156;55.932;-3.238;2023-10-19T12:09:54;6;6;
79689;PMS5003;69156;55.932;-3.238;2023-10-19T12:12:20;7;7;
79689;PMS5003;69156;55.932;-3.238;2023-10-19T12:14:45;7;6;
79689;PMS5003;69156;55.932;-3.238;2023-10-19T12:17:10;6;6;
79689;PMS5003;69156;55.932;-3.238;2023-10-19T12:19:36;5;4;
79689;PMS5003;69156;55.932;-3.238;2023-10-19T12:22:01;7;7;
79689;PMS5003;69156;55.932;-3.238;2023-10-19T12:24:27;8;8;
79689;PMS5003;69156;55.932;-3.238;2023-10-19T12:26:52;7;7;
79689;PMS5003;69156;55.932;-3.238;2023-10-19T12:29:17;7;7;
79689;PMS5003;69156;55.932;-3.238;2023-10-19T12:31:42;11;8;
79689;PMS5003;69156;55.932;-3.238;2023-10-19T12:34:08;6;6;
79689;PMS5003;69156;55.932;-3.238;2023-10-19T12:36:34;9;9;
79689;PMS5003;69156;55.932;-3.238;2023-10-19T12:38:59;9;7;
79689;PMS5003;69156;55.932;-3.238;2023-10-19T12:41:24;5;4;
79689;PMS5003;69156;55.932;-3.238;2023-10-19T12:43:50;7;7;
79689;PMS5003;69156;55.932;-3.238;2023-10-19T12:46:16;5;5;
79689;PMS5003;69156;55.932;-3.238;2023-10-19T12:48:42;7;6;
79689;PMS5003;69156;55.932;-3.238;2023-10-19T12:51:07;7;6;
79689;PMS5003;69156;55.932;-3.238;2023-10-19T12:53:33;12;12;
79689;PMS5003;69156;55.932;-3.238;2023-10-19T12:55:58;8;7;
79689;PMS5003;69156;55.932;-3.238;2023-10-19T12:58:24;6;5;
79689;PMS5003;69156;55.932;-3.238;2023-10-19T13:00:49;8;7;
79689;PMS5003;69156;55.932;-3.238;2023-10-19T13:03:14;6;6;
79689;PMS5003;69156;55.932;-3.238;2023-10-19T13:05:40;9;8;
79689;PMS5003;69156;55.932;-3.238;2023-10-19T13:08:05;6;5;
79689;PMS5003;69156;55.932;-3.238;2023-10-19T13:10:31;6;5;
79689;PMS5003;69156;55.932;-3.238;2023-10-19T13:12:56;6;6;
79689;PMS5003;69156;55.932;-3.238;2023-10-19T13:15:21;8;7;
79689;PMS5003;69156;55.932;-3.238;2023-10-19T13:17:47;8;7;
79689;PMS5003;69156;55.932;-3.238;2023-10-19T13:20:11;6;6;
79689;PMS5003;69156;55.932;-3.238;2023-10-19T13:22:37;10;8;
79689;PMS5003;69156;55.932;-3.238;2023-10-19T13:25:03;7;6;
79689;PMS5003;69156;55.932;-3.238;2023-10-19T13:27:28;6;6;
79689;PMS5003;69156;55.932;-3.238;2023-10-19T13:29:53;10;7;
79689;PMS5003;69156;55.932;-3.238;2023-10-19T13:32:19;8;8;
79689;PMS5003;69156;55.932;-3.238;2023-10-19T13:34:45;5;5;
79689;PMS5003;69156;55.932;-3.238;2023-10-19T13:37:11;4;4;
79689;PMS5003;69156;55.932;-3.238;2023-10-19T13:39:36;8;7;
79689;PMS5003;69156;55.932;-3.238;2023-10-19T13:42:02;6;6;
79689;PMS5003;69156;55.932;-3.238;2023-10-19T13:44:28;6;5;
79689;PMS5003;69156;55.932;-3.238;2023-10-19T13:46:53;6;6;
79689;PMS5003;69156;55.932;-3.238;2023-10-19T13:49:19;7;7;
79689;PMS5003;69156;55.932;-3.238;2023-10-19T13:51:44;9;6;
79689;PMS5003;69156;55.932;-3.238;2023-10-19T13:54:10;6;6;
79689;PMS5003;69156;55.932;-3.238;2023-10-19T13:56:36;5;5;
79689;PMS5003;69156;55.932;-3.238;2023-10-19T13:59:01;10;8;
79689;PMS5003;69156;55.932;-3.238;2023-10-19T14:01:27;8;7;
79689;PMS5003;69156;55.932;-3.238;2023-10-19T14:03:53;5;5;
79689;PMS5003;69156;55.932;-3.238;2023-10-19T14:06:18;5;5;
79689;PMS5003;69156;55.932;-3.238;2023-10-19T14:08:44;10;10;
79689;PMS5003;69156;55.932;-3.238;2023-10-19T14:11:10;6;6;
79689;PMS5003;69156;55.932;-3.238;2023-10-19T14:13:35;9;9;
79689;PMS5003;69156;55.932;-3.238;2023-10-19T14:16:00;7;7;
79689;PMS5003;69156;55.932;-3.238;2023-10-19T14:18:26;9;9;
79689;PMS5003;69156;55.932;-3.238;2023-10-19T14:20:51;9;9;
79689;PMS5003;69156;55.932;-3.238;2023-10-19T14:23:17;5;5;
79689;PMS5003;69156;55.932;-3.238;2023-10-19T14:25:43;8;7;
79689;PMS5003;69156;55.932;-3.238;2023-10-19T14:28:08;9;7;
79689;PMS5003;69156;55.932;-3.238;2023-10-19T14:30:33;10;7;
79689;PMS5003;69156;55.932;-3.238;2023-10-19T14:32:58;12;10;
79689;PMS5003;69156;55.932;-3.238;2023-10-19T14:35:24;9;7;
79689;PMS5003;69156;55.932;-3.238;2023-10-19T14:37:50;8;8;
79689;PMS5003;69156;55.932;-3.238;2023-10-19T14:40:16;9;8;
79689;PMS5003;69156;55.932;-3.238;2023-10-19T14:42:40;9;9;
79689;PMS5003;69156;55.932;-3.238;2023-10-19T14:45:06;7;6;
79689;PMS5003;69156;55.932;-3.238;2023-10-19T14:47:30;13;12;
79689;PMS5003;69156;55.932;-3.238;2023-10-19T14:49:56;8;7;
79689;PMS5003;69156;55.932;-3.238;2023-10-19T14:52:21;8;8;
79689;PMS5003;69156;55.932;-3.238;2023-10-19T14:54:46;7;7;
79689;PMS5003;69156;55.932;-3.238;2023-10-19T14:57:12;11;8;
79689;PMS5003;69156;55.932;-3.238;2023-10-19T14:59:37;9;9;
79689;PMS5003;69156;55.932;-3.238;2023-10-19T15:02:03;12;11;
79689;PMS5003;69156;55.932;-3.238;2023-10-19T15:04:29;13;11;
79689;PMS5003;69156;55.932;-3.238;2023-10-19T15:06:54;8;7;
79689;PMS5003;69156;55.932;-3.238;2023-10-19T15:09:20;11;7;
79689;PMS5003;69156;55.932;-3.238;2023-10-19T15:11:46;9;8;
79689;PMS5003;69156;55.932;-3.238;2023-10-19T15:14:11;8;8;
79689;PMS5003;69156;55.932;-3.238;2023-10-19T15:16:36;7;7;
79689;PMS5003;69156;55.932;-3.238;2023-10-19T15:19:01;11;9;
79689;PMS5003;69156;55.932;-3.238;2023-10-19T15:21:27;11;9;
79689;PMS5003;69156;55.932;-3.238;2023-10-19T15:23:52;8;6;
79689;PMS5003;69156;55.932;-3.238;2023-10-19T15:26:17;9;8;
79689;PMS5003;69156;55.932;-3.238;2023-10-19T15:28:43;10;9;
79689;PMS5003;69156;55.932;-3.238;2023-10-19T15:31:09;9;8;
79689;PMS5003;69156;55.932;-3.238;2023-10-19T15:33:34;13;10;
79689;PMS5003;69156;55.932;-3.238;2023-10-19T15:35:59;12;9;
79689;PMS5003;69156;55.932;-3.238;2023-10-19T15:38:25;13;12;
79689;PMS5003;69156;55.932;-3.238;2023-10-19T15:40:50;12;9;
79689;PMS5003;69156;55.932;-3.238;2023-10-19T15:43:16;10;10;
79689;PMS5003;69156;55.932;-3.238;2023-10-19T15:45:41;13;12;
79689;PMS5003;69156;55.932;-3.238;2023-10-19T15:48:09;12;12;
79689;PMS5003;69156;55.932;-3.238;2023-10-19T15:50:34;14;13;
79689;PMS5003;69156;55.932;-3.238;2023-10-19T15:52:59;15;15;
79689;PMS5003;69156;55.932;-3.238;2023-10-19T15:55:27;11;11;
79689;PMS5003;69156;55.932;-3.238;2023-10-19T15:57:51;14;12;
79689;PMS5003;69156;55.932;-3.238;2023-10-19T16:00:17;11;8;
79689;PMS5003;69156;55.932;-3.238;2023-10-19T16:02:42;12;11;
79689;PMS5003;69156;55.932;-3.238;2023-10-19T16:05:08;8;8;
79689;PMS5003;69156;55.932;-3.238;2023-10-19T16:07:33;6;5;
79689;PMS5003;69156;55.932;-3.238;2023-10-19T16:09:58;11;11;